Altoona, Wisconsin
Current Conditions -  °F | °C
As of 2:56 PM on Saturday 25 Oct 2014 (Local Time) from KEAU Reporting Station
Clear Clear  
Wind Chill: 17°   Ceiling: Unl
Heat Index: 17°   Visibility: 10mi
Dew Point: -3°   Wind: 15mph
Humidity: 26%   Direction: 280°W
Pressure: 29.97"   Gusts: 29mph
Location:  44.81°N, 91.43°W
Report Text: KEAU 251956Z 28013G25KT 10SM CLR 17/M03 A2997 RMK AO2 SLP149 T01671028
Loading
Personal Weather Stations






























Interactive Weather Map
Tropical Storm Tracking
New forecast layout! Learn more

10-Day Weather Forecast

Advertisements
Track Severe Weather on mobile